sensor_id;sensor_type;location;lat;lon;timestamp;P1;durP1;ratioP1;P2;durP2;ratioP2
3527;SDS011;1778;47.966;7.854;2022-11-15T00:00:12;3.13;;;3.03;;
3527;SDS011;1778;47.966;7.854;2022-11-15T00:01:32;3.13;;;3.13;;
3527;SDS011;1778;47.966;7.854;2022-11-15T00:02:52;3.47;;;3.37;;
3527;SDS011;1778;47.966;7.854;2022-11-15T00:04:13;3.50;;;3.40;;
3527;SDS011;1778;47.966;7.854;2022-11-15T00:05:35;3.50;;;3.40;;
3527;SDS011;1778;47.966;7.854;2022-11-15T00:06:56;3.57;;;3.47;;
3527;SDS011;1778;47.966;7.854;2022-11-15T00:08:16;3.13;;;3.13;;
3527;SDS011;1778;47.966;7.854;2022-11-15T00:09:36;3.20;;;3.10;;
3527;SDS011;1778;47.966;7.854;2022-11-15T00:11:04;3.10;;;3.10;;
3527;SDS011;1778;47.966;7.854;2022-11-15T00:12:24;3.43;;;3.33;;
3527;SDS011;1778;47.966;7.854;2022-11-15T00:13:44;15.83;;;4.70;;
3527;SDS011;1778;47.966;7.854;2022-11-15T00:15:04;3.10;;;3.10;;
3527;SDS011;1778;47.966;7.854;2022-11-15T00:16:24;3.60;;;3.50;;
3527;SDS011;1778;47.966;7.854;2022-11-15T00:17:44;2.93;;;2.83;;
3527;SDS011;1778;47.966;7.854;2022-11-15T00:19:08;3.40;;;3.30;;
3527;SDS011;1778;47.966;7.854;2022-11-15T00:20:29;3.17;;;3.07;;
3527;SDS011;1778;47.966;7.854;2022-11-15T00:21:49;3.00;;;3.00;;
3527;SDS011;1778;47.966;7.854;2022-11-15T00:23:10;3.40;;;3.30;;
3527;SDS011;1778;47.966;7.854;2022-11-15T00:24:29;3.30;;;3.20;;
3527;SDS011;1778;47.966;7.854;2022-11-15T00:25:55;3.87;;;3.57;;
3527;SDS011;1778;47.966;7.854;2022-11-15T00:27:16;4.00;;;3.90;;
3527;SDS011;1778;47.966;7.854;2022-11-15T00:28:36;3.33;;;3.27;;
3527;SDS011;1778;47.966;7.854;2022-11-15T00:29:56;3.60;;;3.50;;
3527;SDS011;1778;47.966;7.854;2022-11-15T00:31:16;3.40;;;3.30;;
3527;SDS011;1778;47.966;7.854;2022-11-15T00:32:36;3.83;;;3.70;;
3527;SDS011;1778;47.966;7.854;2022-11-15T00:33:55;3.70;;;3.60;;
3527;SDS011;1778;47.966;7.854;2022-11-15T00:35:15;3.73;;;3.57;;
3527;SDS011;1778;47.966;7.854;2022-11-15T00:36:36;3.60;;;3.50;;
3527;SDS011;1778;47.966;7.854;2022-11-15T00:37:56;3.30;;;3.20;;
3527;SDS011;1778;47.966;7.854;2022-11-15T00:39:16;3.87;;;3.50;;
3527;SDS011;1778;47.966;7.854;2022-11-15T00:40:36;3.50;;;3.40;;
3527;SDS011;1778;47.966;7.854;2022-11-15T00:41:56;3.53;;;3.43;;
3527;SDS011;1778;47.966;7.854;2022-11-15T00:43:16;3.10;;;3.10;;
3527;SDS011;1778;47.966;7.854;2022-11-15T00:44:37;3.13;;;3.13;;
3527;SDS011;1778;47.966;7.854;2022-11-15T00:45:57;3.97;;;3.67;;
3527;SDS011;1778;47.966;7.854;2022-11-15T00:47:17;3.23;;;3.13;;
3527;SDS011;1778;47.966;7.854;2022-11-15T00:48:37;4.20;;;4.00;;
3527;SDS011;1778;47.966;7.854;2022-11-15T00:49:57;3.13;;;3.13;;
3527;SDS011;1778;47.966;7.854;2022-11-15T00:51:18;12.83;;;3.67;;
3527;SDS011;1778;47.966;7.854;2022-11-15T00:52:38;3.07;;;3.07;;
3527;SDS011;1778;47.966;7.854;2022-11-15T00:53:58;3.50;;;3.40;;
3527;SDS011;1778;47.966;7.854;2022-11-15T00:55:18;3.73;;;3.63;;
3527;SDS011;1778;47.966;7.854;2022-11-15T00:56:38;3.37;;;3.17;;
3527;SDS011;1778;47.966;7.854;2022-11-15T00:57:58;8.93;;;2.80;;
3527;SDS011;1778;47.966;7.854;2022-11-15T00:59:18;3.47;;;3.37;;
3527;SDS011;1778;47.966;7.854;2022-11-15T01:00:38;3.17;;;3.07;;
3527;SDS011;1778;47.966;7.854;2022-11-15T01:01:58;4.30;;;3.90;;
3527;SDS011;1778;47.966;7.854;2022-11-15T01:03:18;2.93;;;2.83;;
3527;SDS011;1778;47.966;7.854;2022-11-15T01:04:38;3.57;;;3.40;;
3527;SDS011;1778;47.966;7.854;2022-11-15T01:05:59;3.43;;;3.23;;
3527;SDS011;1778;47.966;7.854;2022-11-15T01:07:19;2.70;;;2.70;;
3527;SDS011;1778;47.966;7.854;2022-11-15T01:08:40;2.97;;;2.87;;
3527;SDS011;1778;47.966;7.854;2022-11-15T01:10:00;2.80;;;2.80;;
3527;SDS011;1778;47.966;7.854;2022-11-15T01:11:21;3.00;;;3.00;;
3527;SDS011;1778;47.966;7.854;2022-11-15T01:12:40;3.37;;;3.27;;
3527;SDS011;1778;47.966;7.854;2022-11-15T01:14:01;2.60;;;2.60;;
3527;SDS011;1778;47.966;7.854;2022-11-15T01:15:21;3.00;;;3.00;;
3527;SDS011;1778;47.966;7.854;2022-11-15T01:16:41;3.40;;;3.30;;
3527;SDS011;1778;47.966;7.854;2022-11-15T01:18:01;3.00;;;3.00;;
3527;SDS011;1778;47.966;7.854;2022-11-15T01:19:21;3.10;;;3.00;;
3527;SDS011;1778;47.966;7.854;2022-11-15T01:20:41;3.30;;;3.20;;
3527;SDS011;1778;47.966;7.854;2022-11-15T01:22:01;4.20;;;3.43;;
3527;SDS011;1778;47.966;7.854;2022-11-15T01:23:21;3.60;;;3.40;;
3527;SDS011;1778;47.966;7.854;2022-11-15T01:24:41;3.20;;;3.20;;
3527;SDS011;1778;47.966;7.854;2022-11-15T01:26:03;3.70;;;3.50;;
3527;SDS011;1778;47.966;7.854;2022-11-15T01:27:24;3.47;;;3.37;;
3527;SDS011;1778;47.966;7.854;2022-11-15T01:28:44;2.63;;;2.63;;
3527;SDS011;1778;47.966;7.854;2022-11-15T01:30:04;3.03;;;2.80;;
3527;SDS011;1778;47.966;7.854;2022-11-15T01:31:26;3.40;;;3.30;;
3527;SDS011;1778;47.966;7.854;2022-11-15T01:32:45;3.10;;;3.10;;
3527;SDS011;1778;47.966;7.854;2022-11-15T01:34:05;3.63;;;3.40;;
3527;SDS011;1778;47.966;7.854;2022-11-15T01:35:26;2.80;;;2.80;;
3527;SDS011;1778;47.966;7.854;2022-11-15T01:36:46;2.90;;;2.90;;
3527;SDS011;1778;47.966;7.854;2022-11-15T01:38:06;2.90;;;2.90;;
3527;SDS011;1778;47.966;7.854;2022-11-15T01:39:27;3.00;;;3.00;;
3527;SDS011;1778;47.966;7.854;2022-11-15T01:40:47;9.67;;;3.90;;
3527;SDS011;1778;47.966;7.854;2022-11-15T01:42:11;3.73;;;3.63;;
3527;SDS011;1778;47.966;7.854;2022-11-15T01:43:33;3.23;;;3.20;;
3527;SDS011;1778;47.966;7.854;2022-11-15T01:44:56;3.10;;;3.10;;
3527;SDS011;1778;47.966;7.854;2022-11-15T01:46:27;3.27;;;3.17;;
3527;SDS011;1778;47.966;7.854;2022-11-15T01:47:53;3.00;;;3.00;;
3527;SDS011;1778;47.966;7.854;2022-11-15T01:49:16;3.43;;;3.33;;
3527;SDS011;1778;47.966;7.854;2022-11-15T01:50:40;3.47;;;3.40;;
3527;SDS011;1778;47.966;7.854;2022-11-15T01:52:00;2.90;;;2.90;;
3527;SDS011;1778;47.966;7.854;2022-11-15T01:53:23;9.17;;;4.03;;
3527;SDS011;1778;47.966;7.854;2022-11-15T01:54:45;2.67;;;2.57;;
3527;SDS011;1778;47.966;7.854;2022-11-15T01:56:08;3.17;;;3.07;;
3527;SDS011;1778;47.966;7.854;2022-11-15T01:57:31;14.30;;;3.47;;
3527;SDS011;1778;47.966;7.854;2022-11-15T01:58:51;3.40;;;3.27;;
3527;SDS011;1778;47.966;7.854;2022-11-15T02:00:14;3.03;;;3.03;;
3527;SDS011;1778;47.966;7.854;2022-11-15T02:01:35;3.17;;;3.17;;
3527;SDS011;1778;47.966;7.854;2022-11-15T02:02:55;3.00;;;2.80;;
3527;SDS011;1778;47.966;7.854;2022-11-15T02:04:17;2.70;;;2.70;;
3527;SDS011;1778;47.966;7.854;2022-11-15T02:05:42;28.43;;;3.17;;
3527;SDS011;1778;47.966;7.854;2022-11-15T02:07:03;2.73;;;2.73;;
3527;SDS011;1778;47.966;7.854;2022-11-15T02:08:28;3.70;;;3.40;;
3527;SDS011;1778;47.966;7.854;2022-11-15T02:09:48;3.07;;;3.07;;
3527;SDS011;1778;47.966;7.854;2022-11-15T02:11:10;2.87;;;2.77;;
3527;SDS011;1778;47.966;7.854;2022-11-15T02:12:30;2.87;;;2.77;;
3527;SDS011;1778;47.966;7.854;2022-11-15T02:13:50;3.00;;;3.00;;
3527;SDS011;1778;47.966;7.854;2022-11-15T02:15:11;2.63;;;2.63;;
3527;SDS011;1778;47.966;7.854;2022-11-15T02:16:54;3.10;;;3.00;;
3527;SDS011;1778;47.966;7.854;2022-11-15T02:18:23;2.97;;;2.87;;
3527;SDS011;1778;47.966;7.854;2022-11-15T02:21:57;3.17;;;3.00;;
3527;SDS011;1778;47.966;7.854;2022-11-15T02:25:14;3.00;;;2.97;;
3527;SDS011;1778;47.966;7.854;2022-11-15T02:26:47;3.03;;;2.80;;
3527;SDS011;1778;47.966;7.854;2022-11-15T02:28:33;2.90;;;2.90;;
3527;SDS011;1778;47.966;7.854;2022-11-15T02:30:25;2.67;;;2.67;;
3527;SDS011;1778;47.966;7.854;2022-11-15T02:32:07;2.63;;;2.63;;
3527;SDS011;1778;47.966;7.854;2022-11-15T02:34:06;2.40;;;2.40;;
3527;SDS011;1778;47.966;7.854;2022-11-15T02:36:59;2.70;;;2.70;;
3527;SDS011;1778;47.966;7.854;2022-11-15T02:38:56;2.57;;;2.57;;
3527;SDS011;1778;47.966;7.854;2022-11-15T02:41:53;2.80;;;2.70;;
3527;SDS011;1778;47.966;7.854;2022-11-15T02:43:20;2.80;;;2.70;;
3527;SDS011;1778;47.966;7.854;2022-11-15T02:45:04;2.90;;;2.90;;
3527;SDS011;1778;47.966;7.854;2022-11-15T02:48:34;4.77;;;4.30;;
3527;SDS011;1778;47.966;7.854;2022-11-15T02:49:54;3.60;;;3.40;;
3527;SDS011;1778;47.966;7.854;2022-11-15T02:51:19;3.00;;;3.00;;
3527;SDS011;1778;47.966;7.854;2022-11-15T02:52:41;2.93;;;2.93;;
3527;SDS011;1778;47.966;7.854;2022-11-15T02:54:05;2.87;;;2.87;;
3527;SDS011;1778;47.966;7.854;2022-11-15T02:56:48;3.37;;;3.30;;
3527;SDS011;1778;47.966;7.854;2022-11-15T03:00:08;2.80;;;2.80;;
3527;SDS011;1778;47.966;7.854;2022-11-15T03:01:47;3.23;;;3.03;;
3527;SDS011;1778;47.966;7.854;2022-11-15T03:03:44;2.87;;;2.83;;
3527;SDS011;1778;47.966;7.854;2022-11-15T03:07:18;3.90;;;3.60;;
3527;SDS011;1778;47.966;7.854;2022-11-15T03:09:04;3.03;;;3.00;;
3527;SDS011;1778;47.966;7.854;2022-11-15T03:12:01;3.17;;;3.10;;
3527;SDS011;1778;47.966;7.854;2022-11-15T03:13:31;3.03;;;3.00;;
3527;SDS011;1778;47.966;7.854;2022-11-15T03:15:08;2.70;;;2.70;;
3527;SDS011;1778;47.966;7.854;2022-11-15T03:16:41;3.00;;;3.00;;
3527;SDS011;1778;47.966;7.854;2022-11-15T03:18:10;2.73;;;2.73;;
3527;SDS011;1778;47.966;7.854;2022-11-15T03:19:44;3.20;;;3.20;;
3527;SDS011;1778;47.966;7.854;2022-11-15T03:21:06;2.90;;;2.90;;
3527;SDS011;1778;47.966;7.854;2022-11-15T03:22:29;3.00;;;3.00;;
3527;SDS011;1778;47.966;7.854;2022-11-15T03:23:52;3.57;;;3.47;;
3527;SDS011;1778;47.966;7.854;2022-11-15T03:25:19;2.93;;;2.93;;
3527;SDS011;1778;47.966;7.854;2022-11-15T03:26:42;3.07;;;3.07;;
3527;SDS011;1778;47.966;7.854;2022-11-15T03:28:04;3.13;;;3.03;;
3527;SDS011;1778;47.966;7.854;2022-11-15T03:29:27;2.60;;;2.60;;
3527;SDS011;1778;47.966;7.854;2022-11-15T03:30:52;2.90;;;2.90;;
3527;SDS011;1778;47.966;7.854;2022-11-15T03:32:15;2.70;;;2.70;;
3527;SDS011;1778;47.966;7.854;2022-11-15T03:33:38;3.23;;;3.23;;
3527;SDS011;1778;47.966;7.854;2022-11-15T03:35:01;3.60;;;3.50;;
3527;SDS011;1778;47.966;7.854;2022-11-15T03:36:30;3.07;;;3.07;;
3527;SDS011;1778;47.966;7.854;2022-11-15T03:38:26;2.90;;;2.90;;
3527;SDS011;1778;47.966;7.854;2022-11-15T03:39:39;3.10;;;3.10;;
3527;SDS011;1778;47.966;7.854;2022-11-15T03:41:05;2.90;;;2.90;;
3527;SDS011;1778;47.966;7.854;2022-11-15T03:42:38;2.90;;;2.90;;
3527;SDS011;1778;47.966;7.854;2022-11-15T03:46:06;3.10;;;3.10;;
3527;SDS011;1778;47.966;7.854;2022-11-15T03:47:36;3.80;;;3.60;;
3527;SDS011;1778;47.966;7.854;2022-11-15T03:49:04;3.70;;;3.60;;
3527;SDS011;1778;47.966;7.854;2022-11-15T03:50:28;3.20;;;3.20;;
3527;SDS011;1778;47.966;7.854;2022-11-15T03:51:48;4.63;;;3.10;;
3527;SDS011;1778;47.966;7.854;2022-11-15T03:53:08;3.40;;;3.30;;
3527;SDS011;1778;47.966;7.854;2022-11-15T03:54:30;3.00;;;3.00;;
3527;SDS011;1778;47.966;7.854;2022-11-15T03:55:50;3.50;;;3.40;;
3527;SDS011;1778;47.966;7.854;2022-11-15T03:57:10;2.73;;;2.73;;
3527;SDS011;1778;47.966;7.854;2022-11-15T03:58:31;3.20;;;3.20;;
3527;SDS011;1778;47.966;7.854;2022-11-15T03:59:51;3.77;;;3.57;;
3527;SDS011;1778;47.966;7.854;2022-11-15T04:01:11;3.23;;;3.13;;
3527;SDS011;1778;47.966;7.854;2022-11-15T04:02:31;3.07;;;3.07;;
3527;SDS011;1778;47.966;7.854;2022-11-15T04:03:51;3.27;;;3.27;;
3527;SDS011;1778;47.966;7.854;2022-11-15T04:05:12;3.07;;;3.07;;
3527;SDS011;1778;47.966;7.854;2022-11-15T04:06:32;3.73;;;3.63;;
3527;SDS011;1778;47.966;7.854;2022-11-15T04:07:52;2.93;;;2.93;;
3527;SDS011;1778;47.966;7.854;2022-11-15T04:09:13;4.03;;;3.67;;
3527;SDS011;1778;47.966;7.854;2022-11-15T04:10:33;3.90;;;3.60;;
3527;SDS011;1778;47.966;7.854;2022-11-15T04:11:53;3.57;;;3.47;;
3527;SDS011;1778;47.966;7.854;2022-11-15T04:13:13;3.50;;;3.40;;
3527;SDS011;1778;47.966;7.854;2022-11-15T04:14:33;3.37;;;3.33;;
3527;SDS011;1778;47.966;7.854;2022-11-15T04:15:53;3.80;;;3.70;;
3527;SDS011;1778;47.966;7.854;2022-11-15T04:17:14;4.07;;;3.97;;
3527;SDS011;1778;47.966;7.854;2022-11-15T04:18:34;3.20;;;3.20;;
3527;SDS011;1778;47.966;7.854;2022-11-15T04:19:54;3.37;;;3.37;;
3527;SDS011;1778;47.966;7.854;2022-11-15T04:21:33;3.17;;;3.17;;
3527;SDS011;1778;47.966;7.854;2022-11-15T04:23:19;3.40;;;3.30;;
3527;SDS011;1778;47.966;7.854;2022-11-15T04:24:58;3.17;;;2.97;;
3527;SDS011;1778;47.966;7.854;2022-11-15T04:26:19;2.73;;;2.73;;
3527;SDS011;1778;47.966;7.854;2022-11-15T04:27:41;3.20;;;3.10;;
3527;SDS011;1778;47.966;7.854;2022-11-15T04:29:01;3.77;;;3.67;;
3527;SDS011;1778;47.966;7.854;2022-11-15T04:30:40;3.23;;;3.03;;
3527;SDS011;1778;47.966;7.854;2022-11-15T04:32:03;3.47;;;3.37;;
3527;SDS011;1778;47.966;7.854;2022-11-15T04:33:25;3.43;;;3.33;;
3527;SDS011;1778;47.966;7.854;2022-11-15T04:34:45;3.00;;;2.90;;
3527;SDS011;1778;47.966;7.854;2022-11-15T04:36:05;2.93;;;2.83;;
3527;SDS011;1778;47.966;7.854;2022-11-15T04:37:44;2.93;;;2.93;;
3527;SDS011;1778;47.966;7.854;2022-11-15T04:39:08;3.47;;;3.20;;
3527;SDS011;1778;47.966;7.854;2022-11-15T04:40:28;3.30;;;3.17;;
3527;SDS011;1778;47.966;7.854;2022-11-15T04:41:48;3.53;;;3.43;;
3527;SDS011;1778;47.966;7.854;2022-11-15T04:43:08;3.60;;;3.50;;
3527;SDS011;1778;47.966;7.854;2022-11-15T04:44:28;3.20;;;3.00;;
3527;SDS011;1778;47.966;7.854;2022-11-15T04:45:48;3.70;;;2.93;;
3527;SDS011;1778;47.966;7.854;2022-11-15T04:47:07;3.30;;;3.30;;
3527;SDS011;1778;47.966;7.854;2022-11-15T04:48:27;3.07;;;2.93;;
3527;SDS011;1778;47.966;7.854;2022-11-15T04:49:48;3.20;;;3.10;;
3527;SDS011;1778;47.966;7.854;2022-11-15T04:51:09;3.10;;;3.10;;
3527;SDS011;1778;47.966;7.854;2022-11-15T04:52:29;3.70;;;3.60;;
3527;SDS011;1778;47.966;7.854;2022-11-15T04:53:49;3.00;;;2.90;;
3527;SDS011;1778;47.966;7.854;2022-11-15T04:55:12;3.33;;;3.23;;
3527;SDS011;1778;47.966;7.854;2022-11-15T04:56:32;3.50;;;3.40;;
3527;SDS011;1778;47.966;7.854;2022-11-15T04:57:59;3.30;;;3.30;;
3527;SDS011;1778;47.966;7.854;2022-11-15T04:59:20;4.37;;;4.10;;
3527;SDS011;1778;47.966;7.854;2022-11-15T05:00:40;3.47;;;3.33;;
3527;SDS011;1778;47.966;7.854;2022-11-15T05:02:00;3.33;;;3.23;;
3527;SDS011;1778;47.966;7.854;2022-11-15T05:03:21;3.30;;;3.20;;
3527;SDS011;1778;47.966;7.854;2022-11-15T05:05:00;3.70;;;3.50;;
3527;SDS011;1778;47.966;7.854;2022-11-15T05:06:20;3.47;;;3.37;;
3527;SDS011;1778;47.966;7.854;2022-11-15T05:07:40;3.80;;;3.70;;
3527;SDS011;1778;47.966;7.854;2022-11-15T05:09:01;3.77;;;3.67;;
3527;SDS011;1778;47.966;7.854;2022-11-15T05:10:21;3.50;;;3.40;;
3527;SDS011;1778;47.966;7.854;2022-11-15T05:11:41;3.40;;;3.30;;
3527;SDS011;1778;47.966;7.854;2022-11-15T05:13:01;3.77;;;3.67;;
3527;SDS011;1778;47.966;7.854;2022-11-15T05:14:21;3.77;;;3.63;;
3527;SDS011;1778;47.966;7.854;2022-11-15T05:15:41;4.40;;;4.20;;
3527;SDS011;1778;47.966;7.854;2022-11-15T05:17:02;3.73;;;3.63;;
3527;SDS011;1778;47.966;7.854;2022-11-15T05:18:21;3.30;;;3.20;;
3527;SDS011;1778;47.966;7.854;2022-11-15T05:19:42;3.60;;;3.40;;
3527;SDS011;1778;47.966;7.854;2022-11-15T05:21:05;3.77;;;3.67;;
3527;SDS011;1778;47.966;7.854;2022-11-15T05:22:27;3.30;;;3.20;;
3527;SDS011;1778;47.966;7.854;2022-11-15T05:23:47;4.33;;;4.13;;
3527;SDS011;1778;47.966;7.854;2022-11-15T05:25:07;3.30;;;3.20;;
3527;SDS011;1778;47.966;7.854;2022-11-15T05:26:28;3.60;;;3.47;;
3527;SDS011;1778;47.966;7.854;2022-11-15T05:27:48;3.70;;;3.60;;
3527;SDS011;1778;47.966;7.854;2022-11-15T05:29:08;4.03;;;3.87;;
3527;SDS011;1778;47.966;7.854;2022-11-15T05:30:30;3.50;;;3.50;;
3527;SDS011;1778;47.966;7.854;2022-11-15T05:31:50;3.43;;;3.30;;
3527;SDS011;1778;47.966;7.854;2022-11-15T05:33:10;3.40;;;3.40;;
3527;SDS011;1778;47.966;7.854;2022-11-15T05:34:30;3.63;;;3.53;;
3527;SDS011;1778;47.966;7.854;2022-11-15T05:35:53;3.63;;;3.50;;
3527;SDS011;1778;47.966;7.854;2022-11-15T05:37:17;3.93;;;3.57;;
3527;SDS011;1778;47.966;7.854;2022-11-15T05:38:38;4.10;;;3.90;;
3527;SDS011;1778;47.966;7.854;2022-11-15T05:39:58;3.70;;;3.60;;
3527;SDS011;1778;47.966;7.854;2022-11-15T05:41:19;3.40;;;3.40;;
3527;SDS011;1778;47.966;7.854;2022-11-15T05:42:41;4.37;;;4.17;;
3527;SDS011;1778;47.966;7.854;2022-11-15T05:44:02;3.40;;;3.30;;
3527;SDS011;1778;47.966;7.854;2022-11-15T05:45:26;3.90;;;3.80;;
3527;SDS011;1778;47.966;7.854;2022-11-15T05:46:47;12.13;;;4.40;;
3527;SDS011;1778;47.966;7.854;2022-11-15T05:48:09;3.70;;;3.70;;
3527;SDS011;1778;47.966;7.854;2022-11-15T05:49:33;3.47;;;3.40;;
3527;SDS011;1778;47.966;7.854;2022-11-15T05:50:55;3.93;;;3.83;;
3527;SDS011;1778;47.966;7.854;2022-11-15T05:52:17;3.97;;;3.87;;
3527;SDS011;1778;47.966;7.854;2022-11-15T05:53:40;3.90;;;3.80;;
3527;SDS011;1778;47.966;7.854;2022-11-15T05:55:01;4.10;;;4.00;;
3527;SDS011;1778;47.966;7.854;2022-11-15T05:56:22;6.10;;;4.73;;
3527;SDS011;1778;47.966;7.854;2022-11-15T05:57:42;4.47;;;4.37;;
3527;SDS011;1778;47.966;7.854;2022-11-15T05:59:02;16.27;;;3.93;;
3527;SDS011;1778;47.966;7.854;2022-11-15T06:00:23;3.90;;;3.80;;
3527;SDS011;1778;47.966;7.854;2022-11-15T06:01:43;3.97;;;3.87;;
3527;SDS011;1778;47.966;7.854;2022-11-15T06:03:04;4.33;;;4.23;;
3527;SDS011;1778;47.966;7.854;2022-11-15T06:04:23;4.90;;;4.73;;
3527;SDS011;1778;47.966;7.854;2022-11-15T06:05:44;4.60;;;4.50;;
3527;SDS011;1778;47.966;7.854;2022-11-15T06:07:03;4.50;;;4.40;;
3527;SDS011;1778;47.966;7.854;2022-11-15T06:08:24;4.33;;;4.23;;
3527;SDS011;1778;47.966;7.854;2022-11-15T06:09:44;4.87;;;4.77;;
3527;SDS011;1778;47.966;7.854;2022-11-15T06:11:07;4.40;;;4.30;;
3527;SDS011;1778;47.966;7.854;2022-11-15T06:12:26;4.73;;;4.60;;
3527;SDS011;1778;47.966;7.854;2022-11-15T06:13:46;4.30;;;4.20;;
3527;SDS011;1778;47.966;7.854;2022-11-15T06:15:07;4.50;;;4.40;;
3527;SDS011;1778;47.966;7.854;2022-11-15T06:16:28;4.30;;;4.20;;
3527;SDS011;1778;47.966;7.854;2022-11-15T06:17:48;4.50;;;4.40;;
3527;SDS011;1778;47.966;7.854;2022-11-15T06:19:08;5.13;;;4.93;;
3527;SDS011;1778;47.966;7.854;2022-11-15T06:20:28;5.83;;;5.40;;
3527;SDS011;1778;47.966;7.854;2022-11-15T06:21:49;6.80;;;6.30;;
3527;SDS011;1778;47.966;7.854;2022-11-15T06:23:09;5.90;;;5.50;;
3527;SDS011;1778;47.966;7.854;2022-11-15T06:24:29;5.00;;;4.70;;
3527;SDS011;1778;47.966;7.854;2022-11-15T06:25:49;5.73;;;4.90;;
3527;SDS011;1778;47.966;7.854;2022-11-15T06:27:08;4.57;;;4.37;;
3527;SDS011;1778;47.966;7.854;2022-11-15T06:28:30;4.70;;;4.60;;
3527;SDS011;1778;47.966;7.854;2022-11-15T06:29:51;4.57;;;4.47;;
3527;SDS011;1778;47.966;7.854;2022-11-15T06:31:11;5.77;;;5.37;;
3527;SDS011;1778;47.966;7.854;2022-11-15T06:32:31;5.40;;;5.20;;
3527;SDS011;1778;47.966;7.854;2022-11-15T06:33:51;4.50;;;4.40;;
3527;SDS011;1778;47.966;7.854;2022-11-15T06:35:12;18.33;;;4.57;;
3527;SDS011;1778;47.966;7.854;2022-11-15T06:36:35;4.97;;;4.87;;
3527;SDS011;1778;47.966;7.854;2022-11-15T06:37:56;5.40;;;5.10;;
3527;SDS011;1778;47.966;7.854;2022-11-15T06:39:25;4.70;;;4.50;;
3527;SDS011;1778;47.966;7.854;2022-11-15T06:40:44;4.70;;;4.60;;
3527;SDS011;1778;47.966;7.854;2022-11-15T06:42:05;5.30;;;5.10;;
3527;SDS011;1778;47.966;7.854;2022-11-15T06:43:25;4.50;;;4.40;;
3527;SDS011;1778;47.966;7.854;2022-11-15T06:44:45;5.27;;;5.17;;
3527;SDS011;1778;47.966;7.854;2022-11-15T06:46:05;4.63;;;4.53;;
3527;SDS011;1778;47.966;7.854;2022-11-15T06:47:26;5.30;;;4.80;;
3527;SDS011;1778;47.966;7.854;2022-11-15T06:48:46;5.07;;;4.87;;
3527;SDS011;1778;47.966;7.854;2022-11-15T06:50:05;5.50;;;5.30;;
3527;SDS011;1778;47.966;7.854;2022-11-15T06:51:26;4.90;;;4.80;;
3527;SDS011;1778;47.966;7.854;2022-11-15T06:52:45;5.50;;;5.30;;
3527;SDS011;1778;47.966;7.854;2022-11-15T06:54:06;5.87;;;5.47;;
3527;SDS011;1778;47.966;7.854;2022-11-15T06:55:26;4.60;;;4.43;;
3527;SDS011;1778;47.966;7.854;2022-11-15T06:56:46;4.27;;;4.17;;
3527;SDS011;1778;47.966;7.854;2022-11-15T06:58:05;6.00;;;5.60;;
3527;SDS011;1778;47.966;7.854;2022-11-15T06:59:25;4.67;;;4.57;;
3527;SDS011;1778;47.966;7.854;2022-11-15T07:00:46;5.40;;;5.20;;
3527;SDS011;1778;47.966;7.854;2022-11-15T07:02:10;6.20;;;6.00;;
3527;SDS011;1778;47.966;7.854;2022-11-15T07:03:40;9.67;;;5.53;;
3527;SDS011;1778;47.966;7.854;2022-11-15T07:05:01;4.90;;;4.57;;
3527;SDS011;1778;47.966;7.854;2022-11-15T07:06:21;5.07;;;4.97;;
3527;SDS011;1778;47.966;7.854;2022-11-15T07:07:41;4.70;;;4.60;;
3527;SDS011;1778;47.966;7.854;2022-11-15T07:09:02;4.53;;;4.30;;
3527;SDS011;1778;47.966;7.854;2022-11-15T07:10:23;5.30;;;5.10;;
3527;SDS011;1778;47.966;7.854;2022-11-15T07:11:45;4.80;;;4.70;;
3527;SDS011;1778;47.966;7.854;2022-11-15T07:13:05;4.73;;;4.53;;
3527;SDS011;1778;47.966;7.854;2022-11-15T07:14:25;4.87;;;4.53;;
3527;SDS011;1778;47.966;7.854;2022-11-15T07:15:45;5.00;;;4.90;;
3527;SDS011;1778;47.966;7.854;2022-11-15T07:17:04;4.80;;;4.70;;
3527;SDS011;1778;47.966;7.854;2022-11-15T07:18:25;5.00;;;4.90;;
3527;SDS011;1778;47.966;7.854;2022-11-15T07:19:46;5.10;;;5.00;;
3527;SDS011;1778;47.966;7.854;2022-11-15T07:21:07;4.87;;;4.77;;
3527;SDS011;1778;47.966;7.854;2022-11-15T07:22:29;5.63;;;5.40;;
3527;SDS011;1778;47.966;7.854;2022-11-15T07:23:49;5.43;;;5.23;;
3527;SDS011;1778;47.966;7.854;2022-11-15T07:25:09;5.10;;;5.00;;
3527;SDS011;1778;47.966;7.854;2022-11-15T07:26:30;4.83;;;4.63;;
3527;SDS011;1778;47.966;7.854;2022-11-15T07:27:59;5.20;;;5.00;;
3527;SDS011;1778;47.966;7.854;2022-11-15T07:29:20;4.50;;;4.33;;
3527;SDS011;1778;47.966;7.854;2022-11-15T07:30:40;5.27;;;4.97;;
3527;SDS011;1778;47.966;7.854;2022-11-15T07:32:04;4.90;;;4.80;;
3527;SDS011;1778;47.966;7.854;2022-11-15T07:33:24;4.90;;;4.70;;
3527;SDS011;1778;47.966;7.854;2022-11-15T07:34:44;5.10;;;4.90;;
3527;SDS011;1778;47.966;7.854;2022-11-15T07:36:06;5.33;;;5.03;;
3527;SDS011;1778;47.966;7.854;2022-11-15T07:37:26;5.10;;;4.90;;
3527;SDS011;1778;47.966;7.854;2022-11-15T07:38:46;5.23;;;4.93;;
3527;SDS011;1778;47.966;7.854;2022-11-15T07:40:07;4.97;;;4.83;;
3527;SDS011;1778;47.966;7.854;2022-11-15T07:41:28;5.20;;;5.10;;
3527;SDS011;1778;47.966;7.854;2022-11-15T07:42:48;5.37;;;5.17;;
3527;SDS011;1778;47.966;7.854;2022-11-15T07:44:15;4.70;;;4.60;;
3527;SDS011;1778;47.966;7.854;2022-11-15T07:45:39;5.83;;;5.63;;
3527;SDS011;1778;47.966;7.854;2022-11-15T07:47:01;5.47;;;5.07;;
3527;SDS011;1778;47.966;7.854;2022-11-15T07:48:21;4.70;;;4.60;;
3527;SDS011;1778;47.966;7.854;2022-11-15T07:49:41;4.77;;;4.57;;
3527;SDS011;1778;47.966;7.854;2022-11-15T07:51:01;5.13;;;4.93;;
3527;SDS011;1778;47.966;7.854;2022-11-15T07:52:22;4.77;;;4.57;;
3527;SDS011;1778;47.966;7.854;2022-11-15T07:53:42;5.37;;;5.17;;
3527;SDS011;1778;47.966;7.854;2022-11-15T07:55:02;5.20;;;5.03;;
3527;SDS011;1778;47.966;7.854;2022-11-15T07:56:22;4.87;;;4.63;;
3527;SDS011;1778;47.966;7.854;2022-11-15T07:57:42;5.13;;;4.97;;
3527;SDS011;1778;47.966;7.854;2022-11-15T07:59:03;5.37;;;5.03;;
3527;SDS011;1778;47.966;7.854;2022-11-15T08:00:23;4.43;;;4.23;;
3527;SDS011;1778;47.966;7.854;2022-11-15T08:01:43;4.80;;;4.53;;
3527;SDS011;1778;47.966;7.854;2022-11-15T08:03:04;4.63;;;4.53;;
3527;SDS011;1778;47.966;7.854;2022-11-15T08:04:25;4.20;;;3.97;;
3527;SDS011;1778;47.966;7.854;2022-11-15T08:05:49;4.53;;;4.33;;
3527;SDS011;1778;47.966;7.854;2022-11-15T08:07:10;4.77;;;4.57;;
3527;SDS011;1778;47.966;7.854;2022-11-15T08:08:30;4.80;;;4.60;;
3527;SDS011;1778;47.966;7.854;2022-11-15T08:09:50;4.93;;;4.83;;
3527;SDS011;1778;47.966;7.854;2022-11-15T08:11:10;5.50;;;5.30;;
3527;SDS011;1778;47.966;7.854;2022-11-15T08:12:30;12.27;;;8.17;;
3527;SDS011;1778;47.966;7.854;2022-11-15T08:13:50;4.33;;;4.23;;
3527;SDS011;1778;47.966;7.854;2022-11-15T08:15:11;4.90;;;4.70;;
3527;SDS011;1778;47.966;7.854;2022-11-15T08:16:31;4.30;;;4.20;;
3527;SDS011;1778;47.966;7.854;2022-11-15T08:17:57;4.40;;;4.30;;
3527;SDS011;1778;47.966;7.854;2022-11-15T08:19:19;4.60;;;4.50;;
3527;SDS011;1778;47.966;7.854;2022-11-15T08:20:39;4.93;;;4.73;;
3527;SDS011;1778;47.966;7.854;2022-11-15T08:22:00;4.63;;;4.50;;
3527;SDS011;1778;47.966;7.854;2022-11-15T08:23:20;4.80;;;4.67;;
3527;SDS011;1778;47.966;7.854;2022-11-15T08:24:40;5.07;;;4.90;;
3527;SDS011;1778;47.966;7.854;2022-11-15T08:26:02;5.53;;;5.30;;
3527;SDS011;1778;47.966;7.854;2022-11-15T08:27:23;4.80;;;4.63;;
3527;SDS011;1778;47.966;7.854;2022-11-15T08:28:43;5.43;;;5.13;;
3527;SDS011;1778;47.966;7.854;2022-11-15T08:30:03;4.70;;;4.40;;
3527;SDS011;1778;47.966;7.854;2022-11-15T08:31:24;4.53;;;4.33;;
3527;SDS011;1778;47.966;7.854;2022-11-15T08:32:45;4.53;;;4.43;;
3527;SDS011;1778;47.966;7.854;2022-11-15T08:34:05;4.70;;;4.40;;
3527;SDS011;1778;47.966;7.854;2022-11-15T08:35:25;4.50;;;4.40;;
3527;SDS011;1778;47.966;7.854;2022-11-15T08:36:48;4.20;;;4.10;;
3527;SDS011;1778;47.966;7.854;2022-11-15T08:38:07;4.43;;;4.33;;
3527;SDS011;1778;47.966;7.854;2022-11-15T08:39:28;4.43;;;4.30;;
3527;SDS011;1778;47.966;7.854;2022-11-15T08:40:48;4.20;;;4.00;;
3527;SDS011;1778;47.966;7.854;2022-11-15T08:42:09;5.63;;;4.40;;
3527;SDS011;1778;47.966;7.854;2022-11-15T08:43:35;5.20;;;5.00;;
3527;SDS011;1778;47.966;7.854;2022-11-15T08:44:55;4.50;;;4.40;;
3527;SDS011;1778;47.966;7.854;2022-11-15T08:46:15;4.17;;;4.07;;
3527;SDS011;1778;47.966;7.854;2022-11-15T08:47:37;4.80;;;4.70;;
3527;SDS011;1778;47.966;7.854;2022-11-15T08:48:57;4.10;;;4.00;;
3527;SDS011;1778;47.966;7.854;2022-11-15T08:50:17;4.37;;;4.27;;